sensor_id;sensor_type;location;lat;lon;timestamp;P1;durP1;ratioP1;P2;durP2;ratioP2
17997;SDS011;9124;48.144;17.098;2023-02-03T00:02:42;2.78;;;1.08;;
17997;SDS011;9124;48.144;17.098;2023-02-03T00:06:20;2.53;;;1.52;;
17997;SDS011;9124;48.144;17.098;2023-02-03T00:09:57;2.72;;;1.80;;
17997;SDS011;9124;48.144;17.098;2023-02-03T00:13:33;2.03;;;1.88;;
17997;SDS011;9124;48.144;17.098;2023-02-03T00:17:10;3.13;;;1.50;;
17997;SDS011;9124;48.144;17.098;2023-02-03T00:20:46;2.15;;;1.55;;
17997;SDS011;9124;48.144;17.098;2023-02-03T00:24:23;1.67;;;1.58;;
17997;SDS011;9124;48.144;17.098;2023-02-03T00:27:59;4.13;;;1.35;;
17997;SDS011;9124;48.144;17.098;2023-02-03T00:31:36;4.38;;;1.42;;
17997;SDS011;9124;48.144;17.098;2023-02-03T00:35:14;1.40;;;1.30;;
17997;SDS011;9124;48.144;17.098;2023-02-03T00:38:51;2.03;;;1.35;;
17997;SDS011;9124;48.144;17.098;2023-02-03T00:42:28;1.40;;;1.30;;
17997;SDS011;9124;48.144;17.098;2023-02-03T00:46:04;3.33;;;1.45;;
17997;SDS011;9124;48.144;17.098;2023-02-03T00:49:42;5.32;;;1.63;;
17997;SDS011;9124;48.144;17.098;2023-02-03T00:53:18;3.80;;;1.60;;
17997;SDS011;9124;48.144;17.098;2023-02-03T00:56:55;2.00;;;1.80;;
17997;SDS011;9124;48.144;17.098;2023-02-03T01:00:31;2.33;;;2.13;;
17997;SDS011;9124;48.144;17.098;2023-02-03T01:04:08;4.07;;;1.80;;
17997;SDS011;9124;48.144;17.098;2023-02-03T01:07:44;2.25;;;1.98;;
17997;SDS011;9124;48.144;17.098;2023-02-03T01:11:25;1.63;;;1.52;;
17997;SDS011;9124;48.144;17.098;2023-02-03T01:15:02;2.75;;;2.00;;
17997;SDS011;9124;48.144;17.098;2023-02-03T01:18:39;9.13;;;2.13;;
17997;SDS011;9124;48.144;17.098;2023-02-03T01:22:16;2.60;;;1.90;;
17997;SDS011;9124;48.144;17.098;2023-02-03T01:25:52;3.70;;;2.35;;
17997;SDS011;9124;48.144;17.098;2023-02-03T01:29:28;3.47;;;2.10;;
17997;SDS011;9124;48.144;17.098;2023-02-03T01:33:05;3.30;;;2.00;;
17997;SDS011;9124;48.144;17.098;2023-02-03T01:36:41;3.58;;;1.90;;
17997;SDS011;9124;48.144;17.098;2023-02-03T01:40:18;4.38;;;2.65;;
17997;SDS011;9124;48.144;17.098;2023-02-03T01:43:55;5.03;;;2.65;;
17997;SDS011;9124;48.144;17.098;2023-02-03T01:47:53;3.05;;;2.45;;
17997;SDS011;9124;48.144;17.098;2023-02-03T01:51:33;3.13;;;2.50;;
17997;SDS011;9124;48.144;17.098;2023-02-03T01:55:13;4.25;;;3.03;;
17997;SDS011;9124;48.144;17.098;2023-02-03T02:08:15;7.50;;;3.13;;
17997;SDS011;9124;48.144;17.098;2023-02-03T02:11:53;7.43;;;3.28;;
17997;SDS011;9124;48.144;17.098;2023-02-03T02:23:16;3.65;;;3.35;;
17997;SDS011;9124;48.144;17.098;2023-02-03T02:31:14;4.20;;;3.22;;
17997;SDS011;9124;48.144;17.098;2023-02-03T02:42:34;3.78;;;3.47;;
17997;SDS011;9124;48.144;17.098;2023-02-03T02:46:24;4.25;;;3.88;;
17997;SDS011;9124;48.144;17.098;2023-02-03T02:50:12;6.53;;;3.45;;
17997;SDS011;9124;48.144;17.098;2023-02-03T02:54:17;6.55;;;3.92;;
17997;SDS011;9124;48.144;17.098;2023-02-03T02:58:01;8.02;;;4.75;;
17997;SDS011;9124;48.144;17.098;2023-02-03T03:01:41;6.80;;;4.18;;
17997;SDS011;9124;48.144;17.098;2023-02-03T03:05:19;6.15;;;4.55;;
17997;SDS011;9124;48.144;17.098;2023-02-03T03:09:00;8.90;;;4.55;;
17997;SDS011;9124;48.144;17.098;2023-02-03T03:12:44;4.78;;;4.38;;
17997;SDS011;9124;48.144;17.098;2023-02-03T03:16:26;4.35;;;3.95;;
17997;SDS011;9124;48.144;17.098;2023-02-03T03:20:09;3.92;;;3.53;;
17997;SDS011;9124;48.144;17.098;2023-02-03T03:23:50;5.13;;;3.90;;
17997;SDS011;9124;48.144;17.098;2023-02-03T03:27:31;4.15;;;3.60;;
17997;SDS011;9124;48.144;17.098;2023-02-03T03:31:14;5.93;;;4.13;;
17997;SDS011;9124;48.144;17.098;2023-02-03T03:34:53;4.50;;;4.03;;
17997;SDS011;9124;48.144;17.098;2023-02-03T03:38:38;8.25;;;4.35;;
17997;SDS011;9124;48.144;17.098;2023-02-03T03:46:24;4.30;;;3.92;;
17997;SDS011;9124;48.144;17.098;2023-02-03T03:50:06;4.00;;;3.60;;
17997;SDS011;9124;48.144;17.098;2023-02-03T03:53:46;3.30;;;3.00;;
17997;SDS011;9124;48.144;17.098;2023-02-03T03:57:30;3.83;;;3.42;;
17997;SDS011;9124;48.144;17.098;2023-02-03T04:10:29;3.63;;;3.35;;
17997;SDS011;9124;48.144;17.098;2023-02-03T04:14:08;5.88;;;2.90;;
17997;SDS011;9124;48.144;17.098;2023-02-03T04:17:44;3.97;;;3.58;;
17997;SDS011;9124;48.144;17.098;2023-02-03T04:21:21;3.38;;;3.08;;
17997;SDS011;9124;48.144;17.098;2023-02-03T04:24:58;3.60;;;3.30;;
17997;SDS011;9124;48.144;17.098;2023-02-03T04:28:34;3.10;;;2.90;;
17997;SDS011;9124;48.144;17.098;2023-02-03T04:32:10;3.40;;;3.10;;
17997;SDS011;9124;48.144;17.098;2023-02-03T04:35:47;4.35;;;3.22;;
17997;SDS011;9124;48.144;17.098;2023-02-03T04:39:23;3.55;;;3.30;;
17997;SDS011;9124;48.144;17.098;2023-02-03T04:43:07;3.35;;;3.10;;
17997;SDS011;9124;48.144;17.098;2023-02-03T04:46:43;4.30;;;3.00;;
17997;SDS011;9124;48.144;17.098;2023-02-03T04:50:19;8.75;;;3.65;;
17997;SDS011;9124;48.144;17.098;2023-02-03T04:53:56;3.78;;;3.05;;
17997;SDS011;9124;48.144;17.098;2023-02-03T04:57:32;5.20;;;3.20;;
17997;SDS011;9124;48.144;17.098;2023-02-03T05:01:09;4.55;;;3.55;;
17997;SDS011;9124;48.144;17.098;2023-02-03T05:04:46;3.78;;;3.05;;
17997;SDS011;9124;48.144;17.098;2023-02-03T05:08:22;3.55;;;3.25;;
17997;SDS011;9124;48.144;17.098;2023-02-03T05:11:59;3.42;;;3.13;;
17997;SDS011;9124;48.144;17.098;2023-02-03T05:15:35;6.78;;;3.42;;
17997;SDS011;9124;48.144;17.098;2023-02-03T05:19:11;4.43;;;3.58;;
17997;SDS011;9124;48.144;17.098;2023-02-03T05:22:47;7.60;;;3.60;;
17997;SDS011;9124;48.144;17.098;2023-02-03T05:26:24;4.82;;;4.05;;
17997;SDS011;9124;48.144;17.098;2023-02-03T05:30:00;4.35;;;4.00;;
17997;SDS011;9124;48.144;17.098;2023-02-03T05:33:37;6.13;;;4.45;;
17997;SDS011;9124;48.144;17.098;2023-02-03T05:37:13;4.55;;;4.13;;
17997;SDS011;9124;48.144;17.098;2023-02-03T05:40:51;5.55;;;3.83;;
17997;SDS011;9124;48.144;17.098;2023-02-03T05:44:45;3.42;;;3.13;;
17997;SDS011;9124;48.144;17.098;2023-02-03T05:48:22;5.75;;;3.60;;
17997;SDS011;9124;48.144;17.098;2023-02-03T05:51:58;4.20;;;3.90;;
17997;SDS011;9124;48.144;17.098;2023-02-03T05:55:35;4.25;;;3.75;;
17997;SDS011;9124;48.144;17.098;2023-02-03T05:59:12;7.82;;;4.47;;
17997;SDS011;9124;48.144;17.098;2023-02-03T06:02:55;3.97;;;3.60;;
17997;SDS011;9124;48.144;17.098;2023-02-03T06:06:33;7.97;;;3.35;;
17997;SDS011;9124;48.144;17.098;2023-02-03T06:10:10;7.55;;;3.88;;
17997;SDS011;9124;48.144;17.098;2023-02-03T06:13:46;8.40;;;3.72;;
17997;SDS011;9124;48.144;17.098;2023-02-03T06:17:23;3.88;;;3.05;;
17997;SDS011;9124;48.144;17.098;2023-02-03T06:20:59;6.55;;;3.92;;
17997;SDS011;9124;48.144;17.098;2023-02-03T06:24:35;3.42;;;2.65;;
17997;SDS011;9124;48.144;17.098;2023-02-03T06:28:12;3.90;;;3.22;;
17997;SDS011;9124;48.144;17.098;2023-02-03T06:31:48;5.35;;;3.28;;
17997;SDS011;9124;48.144;17.098;2023-02-03T06:35:25;3.53;;;3.22;;
17997;SDS011;9124;48.144;17.098;2023-02-03T06:39:01;4.05;;;3.08;;
17997;SDS011;9124;48.144;17.098;2023-02-03T06:51:49;3.58;;;3.28;;
17997;SDS011;9124;48.144;17.098;2023-02-03T06:55:26;6.45;;;3.28;;
17997;SDS011;9124;48.144;17.098;2023-02-03T06:59:03;3.45;;;3.15;;
17997;SDS011;9124;48.144;17.098;2023-02-03T07:07:19;3.50;;;3.20;;
17997;SDS011;9124;48.144;17.098;2023-02-03T07:10:55;4.20;;;3.80;;
17997;SDS011;9124;48.144;17.098;2023-02-03T07:14:32;4.50;;;3.30;;
17997;SDS011;9124;48.144;17.098;2023-02-03T07:18:11;8.18;;;3.30;;
17997;SDS011;9124;48.144;17.098;2023-02-03T07:21:47;6.07;;;3.40;;
17997;SDS011;9124;48.144;17.098;2023-02-03T07:25:23;6.22;;;3.00;;
17997;SDS011;9124;48.144;17.098;2023-02-03T07:29:00;7.28;;;2.97;;
17997;SDS011;9124;48.144;17.098;2023-02-03T07:32:36;6.05;;;2.95;;
17997;SDS011;9124;48.144;17.098;2023-02-03T07:36:13;3.78;;;2.60;;
17997;SDS011;9124;48.144;17.098;2023-02-03T07:39:49;2.10;;;2.00;;
17997;SDS011;9124;48.144;17.098;2023-02-03T07:43:25;2.28;;;2.08;;
17997;SDS011;9124;48.144;17.098;2023-02-03T07:47:01;1.95;;;1.80;;
17997;SDS011;9124;48.144;17.098;2023-02-03T07:50:38;1.33;;;1.23;;
17997;SDS011;9124;48.144;17.098;2023-02-03T07:54:14;1.13;;;0.95;;
17997;SDS011;9124;48.144;17.098;2023-02-03T07:57:54;1.30;;;1.20;;
17997;SDS011;9124;48.144;17.098;2023-02-03T08:01:31;1.17;;;1.13;;
17997;SDS011;9124;48.144;17.098;2023-02-03T08:05:09;1.00;;;1.00;;
17997;SDS011;9124;48.144;17.098;2023-02-03T08:08:46;1.55;;;1.30;;
17997;SDS011;9124;48.144;17.098;2023-02-03T08:12:23;1.00;;;1.00;;
17997;SDS011;9124;48.144;17.098;2023-02-03T08:15:59;2.28;;;1.00;;
17997;SDS011;9124;48.144;17.098;2023-02-03T08:19:35;1.48;;;1.10;;
17997;SDS011;9124;48.144;17.098;2023-02-03T08:23:11;0.80;;;0.80;;
17997;SDS011;9124;48.144;17.098;2023-02-03T08:26:48;1.27;;;0.90;;
17997;SDS011;9124;48.144;17.098;2023-02-03T08:30:24;6.95;;;1.35;;
17997;SDS011;9124;48.144;17.098;2023-02-03T08:34:01;1.42;;;1.30;;
17997;SDS011;9124;48.144;17.098;2023-02-03T08:37:38;0.90;;;0.90;;
17997;SDS011;9124;48.144;17.098;2023-02-03T08:41:15;0.80;;;0.80;;
17997;SDS011;9124;48.144;17.098;2023-02-03T08:44:55;0.70;;;0.70;;
17997;SDS011;9124;48.144;17.098;2023-02-03T08:52:35;0.80;;;0.75;;
17997;SDS011;9124;48.144;17.098;2023-02-03T08:56:11;2.38;;;0.70;;
17997;SDS011;9124;48.144;17.098;2023-02-03T08:59:48;0.50;;;0.50;;
17997;SDS011;9124;48.144;17.098;2023-02-03T09:07:27;4.85;;;1.05;;
17997;SDS011;9124;48.144;17.098;2023-02-03T09:11:14;0.55;;;0.50;;
17997;SDS011;9124;48.144;17.098;2023-02-03T09:14:52;0.80;;;0.80;;
17997;SDS011;9124;48.144;17.098;2023-02-03T09:18:28;2.55;;;0.80;;
17997;SDS011;9124;48.144;17.098;2023-02-03T09:22:05;3.67;;;0.68;;
17997;SDS011;9124;48.144;17.098;2023-02-03T09:25:41;0.50;;;0.50;;
17997;SDS011;9124;48.144;17.098;2023-02-03T09:29:18;2.47;;;0.70;;
17997;SDS011;9124;48.144;17.098;2023-02-03T09:32:55;0.70;;;0.70;;
17997;SDS011;9124;48.144;17.098;2023-02-03T09:36:31;1.02;;;0.93;;
17997;SDS011;9124;48.144;17.098;2023-02-03T09:40:09;1.00;;;0.98;;
17997;SDS011;9124;48.144;17.098;2023-02-03T09:43:57;0.65;;;0.65;;
17997;SDS011;9124;48.144;17.098;2023-02-03T09:47:42;2.33;;;0.70;;
17997;SDS011;9124;48.144;17.098;2023-02-03T09:55:52;3.63;;;0.80;;
17997;SDS011;9124;48.144;17.098;2023-02-03T09:59:29;1.50;;;1.00;;
17997;SDS011;9124;48.144;17.098;2023-02-03T10:07:22;1.73;;;1.10;;
17997;SDS011;9124;48.144;17.098;2023-02-03T10:15:21;2.65;;;1.25;;
17997;SDS011;9124;48.144;17.098;2023-02-03T10:19:53;5.57;;;1.88;;
17997;SDS011;9124;48.144;17.098;2023-02-03T10:24:00;3.20;;;1.85;;
17997;SDS011;9124;48.144;17.098;2023-02-03T10:27:39;5.47;;;1.88;;
17997;SDS011;9124;48.144;17.098;2023-02-03T10:31:18;5.25;;;2.05;;
17997;SDS011;9124;48.144;17.098;2023-02-03T10:34:58;1.92;;;1.77;;
17997;SDS011;9124;48.144;17.098;2023-02-03T10:42:18;3.08;;;1.60;;
17997;SDS011;9124;48.144;17.098;2023-02-03T10:45:56;2.38;;;1.55;;
17997;SDS011;9124;48.144;17.098;2023-02-03T10:49:34;4.35;;;1.67;;
17997;SDS011;9124;48.144;17.098;2023-02-03T10:56:56;4.82;;;1.45;;
17997;SDS011;9124;48.144;17.098;2023-02-03T11:00:37;1.50;;;0.63;;
17997;SDS011;9124;48.144;17.098;2023-02-03T11:04:27;0.52;;;0.52;;
17997;SDS011;9124;48.144;17.098;2023-02-03T11:08:15;0.95;;;0.47;;
17997;SDS011;9124;48.144;17.098;2023-02-03T11:12:01;0.43;;;0.43;;
17997;SDS011;9124;48.144;17.098;2023-02-03T11:16:02;1.85;;;0.68;;
17997;SDS011;9124;48.144;17.098;2023-02-03T11:19:48;1.48;;;0.43;;
17997;SDS011;9124;48.144;17.098;2023-02-03T11:23:26;0.40;;;0.30;;
17997;SDS011;9124;48.144;17.098;2023-02-03T11:27:08;1.02;;;0.50;;
17997;SDS011;9124;48.144;17.098;2023-02-03T11:30:53;3.83;;;0.60;;
17997;SDS011;9124;48.144;17.098;2023-02-03T11:34:33;4.00;;;0.50;;
17997;SDS011;9124;48.144;17.098;2023-02-03T11:47:42;3.60;;;0.30;;
17997;SDS011;9124;48.144;17.098;2023-02-03T11:51:25;1.20;;;0.50;;
17997;SDS011;9124;48.144;17.098;2023-02-03T11:59:21;0.30;;;0.30;;
17997;SDS011;9124;48.144;17.098;2023-02-03T12:11:39;0.40;;;0.40;;
17997;SDS011;9124;48.144;17.098;2023-02-03T12:14:51;0.28;;;0.28;;
17997;SDS011;9124;48.144;17.098;2023-02-03T12:22:35;0.40;;;0.40;;
17997;SDS011;9124;48.144;17.098;2023-02-03T12:26:24;0.30;;;0.17;;
17997;SDS011;9124;48.144;17.098;2023-02-03T12:30:38;0.35;;;0.30;;
17997;SDS011;9124;48.144;17.098;2023-02-03T12:37:57;0.20;;;0.20;;
17997;SDS011;9124;48.144;17.098;2023-02-03T12:41:47;2.88;;;0.38;;
17997;SDS011;9124;48.144;17.098;2023-02-03T12:45:30;3.50;;;0.40;;
17997;SDS011;9124;48.144;17.098;2023-02-03T12:49:14;0.28;;;0.28;;
17997;SDS011;9124;48.144;17.098;2023-02-03T12:53:23;1.95;;;0.50;;
17997;SDS011;9124;48.144;17.098;2023-02-03T12:57:11;0.43;;;0.32;;
17997;SDS011;9124;48.144;17.098;2023-02-03T13:01:13;0.57;;;0.50;;
17997;SDS011;9124;48.144;17.098;2023-02-03T13:05:04;1.17;;;0.30;;
17997;SDS011;9124;48.144;17.098;2023-02-03T13:08:57;0.28;;;0.28;;
17997;SDS011;9124;48.144;17.098;2023-02-03T13:12:52;0.98;;;0.50;;
17997;SDS011;9124;48.144;17.098;2023-02-03T13:16:32;0.30;;;0.30;;
17997;SDS011;9124;48.144;17.098;2023-02-03T13:24:16;0.30;;;0.30;;
17997;SDS011;9124;48.144;17.098;2023-02-03T13:43:55;0.65;;;0.50;;
17997;SDS011;9124;48.144;17.098;2023-02-03T13:47:33;1.52;;;0.30;;
17997;SDS011;9124;48.144;17.098;2023-02-03T13:51:14;0.30;;;0.30;;
17997;SDS011;9124;48.144;17.098;2023-02-03T13:54:56;0.38;;;0.38;;
17997;SDS011;9124;48.144;17.098;2023-02-03T13:58:37;1.27;;;0.68;;
17997;SDS011;9124;48.144;17.098;2023-02-03T14:05:58;0.35;;;0.17;;
17997;SDS011;9124;48.144;17.098;2023-02-03T14:09:36;0.22;;;0.22;;
17997;SDS011;9124;48.144;17.098;2023-02-03T14:13:20;0.90;;;0.45;;
17997;SDS011;9124;48.144;17.098;2023-02-03T14:16:56;2.35;;;0.35;;
17997;SDS011;9124;48.144;17.098;2023-02-03T14:20:36;2.97;;;0.68;;
17997;SDS011;9124;48.144;17.098;2023-02-03T14:24:15;0.32;;;0.30;;
17997;SDS011;9124;48.144;17.098;2023-02-03T14:28:01;0.30;;;0.30;;
17997;SDS011;9124;48.144;17.098;2023-02-03T14:31:51;0.40;;;0.40;;
17997;SDS011;9124;48.144;17.098;2023-02-03T14:35:51;1.27;;;0.20;;
17997;SDS011;9124;48.144;17.098;2023-02-03T14:39:40;0.30;;;0.30;;
17997;SDS011;9124;48.144;17.098;2023-02-03T14:59:41;0.93;;;0.80;;
17997;SDS011;9124;48.144;17.098;2023-02-03T15:03:29;0.30;;;0.30;;
17997;SDS011;9124;48.144;17.098;2023-02-03T15:18:58;0.40;;;0.40;;
17997;SDS011;9124;48.144;17.098;2023-02-03T15:22:37;0.65;;;0.50;;
17997;SDS011;9124;48.144;17.098;2023-02-03T15:26:19;0.75;;;0.40;;
17997;SDS011;9124;48.144;17.098;2023-02-03T15:30:12;0.40;;;0.40;;
17997;SDS011;9124;48.144;17.098;2023-02-03T15:38:21;0.45;;;0.45;;
17997;SDS011;9124;48.144;17.098;2023-02-03T15:42:02;0.95;;;0.60;;
17997;SDS011;9124;48.144;17.098;2023-02-03T15:46:03;1.17;;;0.38;;
17997;SDS011;9124;48.144;17.098;2023-02-03T15:49:38;0.50;;;0.47;;
17997;SDS011;9124;48.144;17.098;2023-02-03T15:53:28;0.75;;;0.70;;
17997;SDS011;9124;48.144;17.098;2023-02-03T15:57:22;5.40;;;0.60;;
17997;SDS011;9124;48.144;17.098;2023-02-03T16:01:03;0.20;;;0.20;;
17997;SDS011;9124;48.144;17.098;2023-02-03T16:04:44;3.50;;;0.32;;
17997;SDS011;9124;48.144;17.098;2023-02-03T16:08:32;0.55;;;0.40;;
17997;SDS011;9124;48.144;17.098;2023-02-03T16:12:23;0.95;;;0.60;;
17997;SDS011;9124;48.144;17.098;2023-02-03T16:16:13;0.95;;;0.35;;
17997;SDS011;9124;48.144;17.098;2023-02-03T16:20:18;0.32;;;0.32;;
17997;SDS011;9124;48.144;17.098;2023-02-03T16:23:58;0.60;;;0.60;;
17997;SDS011;9124;48.144;17.098;2023-02-03T16:27:35;0.40;;;0.40;;
17997;SDS011;9124;48.144;17.098;2023-02-03T16:31:15;1.70;;;0.75;;
17997;SDS011;9124;48.144;17.098;2023-02-03T16:35:13;0.43;;;0.40;;
17997;SDS011;9124;48.144;17.098;2023-02-03T16:39:11;0.68;;;0.65;;
17997;SDS011;9124;48.144;17.098;2023-02-03T16:43:11;0.75;;;0.50;;
17997;SDS011;9124;48.144;17.098;2023-02-03T16:51:38;0.40;;;0.40;;
17997;SDS011;9124;48.144;17.098;2023-02-03T16:55:17;2.55;;;0.98;;
17997;SDS011;9124;48.144;17.098;2023-02-03T16:58:53;0.50;;;0.32;;
17997;SDS011;9124;48.144;17.098;2023-02-03T17:02:29;0.50;;;0.30;;
17997;SDS011;9124;48.144;17.098;2023-02-03T17:06:07;0.57;;;0.57;;
17997;SDS011;9124;48.144;17.098;2023-02-03T17:09:45;0.57;;;0.40;;
17997;SDS011;9124;48.144;17.098;2023-02-03T17:17:57;0.57;;;0.38;;
17997;SDS011;9124;48.144;17.098;2023-02-03T17:21:33;0.55;;;0.55;;
17997;SDS011;9124;48.144;17.098;2023-02-03T17:25:10;0.43;;;0.43;;
17997;SDS011;9124;48.144;17.098;2023-02-03T17:28:46;0.80;;;0.40;;
17997;SDS011;9124;48.144;17.098;2023-02-03T17:32:22;0.43;;;0.38;;
17997;SDS011;9124;48.144;17.098;2023-02-03T17:36:00;1.00;;;0.60;;
17997;SDS011;9124;48.144;17.098;2023-02-03T17:39:41;0.40;;;0.40;;
17997;SDS011;9124;48.144;17.098;2023-02-03T17:43:17;1.23;;;0.63;;
17997;SDS011;9124;48.144;17.098;2023-02-03T17:46:53;0.40;;;0.40;;
17997;SDS011;9124;48.144;17.098;2023-02-03T17:50:30;0.50;;;0.50;;
17997;SDS011;9124;48.144;17.098;2023-02-03T17:54:06;0.40;;;0.30;;
17997;SDS011;9124;48.144;17.098;2023-02-03T17:57:42;0.50;;;0.50;;
17997;SDS011;9124;48.144;17.098;2023-02-03T18:01:19;0.40;;;0.40;;
17997;SDS011;9124;48.144;17.098;2023-02-03T18:04:55;0.30;;;0.30;;
17997;SDS011;9124;48.144;17.098;2023-02-03T18:08:31;0.35;;;0.35;;
17997;SDS011;9124;48.144;17.098;2023-02-03T18:12:09;0.55;;;0.52;;
17997;SDS011;9124;48.144;17.098;2023-02-03T18:15:45;0.40;;;0.40;;
17997;SDS011;9124;48.144;17.098;2023-02-03T18:28:02;0.30;;;0.30;;
17997;SDS011;9124;48.144;17.098;2023-02-03T18:31:39;2.40;;;0.35;;
17997;SDS011;9124;48.144;17.098;2023-02-03T18:35:15;2.35;;;0.52;;
17997;SDS011;9124;48.144;17.098;2023-02-03T18:38:52;0.60;;;0.45;;
17997;SDS011;9124;48.144;17.098;2023-02-03T18:42:29;0.40;;;0.40;;
17997;SDS011;9124;48.144;17.098;2023-02-03T18:46:09;0.47;;;0.47;;
17997;SDS011;9124;48.144;17.098;2023-02-03T18:49:46;0.30;;;0.30;;
17997;SDS011;9124;48.144;17.098;2023-02-03T18:53:23;3.35;;;0.70;;
17997;SDS011;9124;48.144;17.098;2023-02-03T18:56:59;0.90;;;0.40;;
17997;SDS011;9124;48.144;17.098;2023-02-03T19:00:37;0.60;;;0.40;;
17997;SDS011;9124;48.144;17.098;2023-02-03T19:04:14;2.33;;;0.80;;
17997;SDS011;9124;48.144;17.098;2023-02-03T19:07:50;2.65;;;0.52;;
17997;SDS011;9124;48.144;17.098;2023-02-03T19:11:27;4.18;;;0.98;;
17997;SDS011;9124;48.144;17.098;2023-02-03T19:15:03;2.47;;;0.93;;
17997;SDS011;9124;48.144;17.098;2023-02-03T19:18:41;1.67;;;0.68;;
17997;SDS011;9124;48.144;17.098;2023-02-03T19:22:21;2.47;;;0.95;;
17997;SDS011;9124;48.144;17.098;2023-02-03T19:25:57;1.85;;;0.93;;
17997;SDS011;9124;48.144;17.098;2023-02-03T19:29:34;3.25;;;0.73;;
17997;SDS011;9124;48.144;17.098;2023-02-03T19:33:10;1.85;;;1.52;;
17997;SDS011;9124;48.144;17.098;2023-02-03T19:36:47;2.70;;;0.70;;
17997;SDS011;9124;48.144;17.098;2023-02-03T19:40:23;5.38;;;1.38;;
17997;SDS011;9124;48.144;17.098;2023-02-03T19:43:59;9.15;;;1.27;;
17997;SDS011;9124;48.144;17.098;2023-02-03T19:47:36;3.38;;;0.95;;
17997;SDS011;9124;48.144;17.098;2023-02-03T19:51:12;3.70;;;1.40;;
17997;SDS011;9124;48.144;17.098;2023-02-03T19:54:48;5.28;;;1.00;;
17997;SDS011;9124;48.144;17.098;2023-02-03T19:58:28;4.00;;;1.00;;
17997;SDS011;9124;48.144;17.098;2023-02-03T20:02:05;2.28;;;1.50;;
17997;SDS011;9124;48.144;17.098;2023-02-03T20:05:41;3.30;;;1.42;;
17997;SDS011;9124;48.144;17.098;2023-02-03T20:09:18;3.42;;;0.98;;
17997;SDS011;9124;48.144;17.098;2023-02-03T20:12:54;2.35;;;0.88;;
17997;SDS011;9124;48.144;17.098;2023-02-03T20:16:30;3.63;;;1.00;;
17997;SDS011;9124;48.144;17.098;2023-02-03T20:20:07;4.53;;;0.88;;
17997;SDS011;9124;48.144;17.098;2023-02-03T20:28:24;3.83;;;0.93;;
17997;SDS011;9124;48.144;17.098;2023-02-03T20:32:02;1.50;;;1.30;;
17997;SDS011;9124;48.144;17.098;2023-02-03T20:35:41;2.90;;;1.30;;
17997;SDS011;9124;48.144;17.098;2023-02-03T20:39:18;3.30;;;1.10;;
17997;SDS011;9124;48.144;17.098;2023-02-03T20:42:55;3.95;;;1.58;;
17997;SDS011;9124;48.144;17.098;2023-02-03T20:46:32;2.13;;;0.82;;
17997;SDS011;9124;48.144;17.098;2023-02-03T20:50:12;2.05;;;0.90;;
17997;SDS011;9124;48.144;17.098;2023-02-03T20:53:53;2.15;;;0.95;;
17997;SDS011;9124;48.144;17.098;2023-02-03T20:57:31;5.47;;;3.78;;
17997;SDS011;9124;48.144;17.098;2023-02-03T21:01:11;0.80;;;0.80;;
17997;SDS011;9124;48.144;17.098;2023-02-03T21:04:53;6.38;;;1.00;;
17997;SDS011;9124;48.144;17.098;2023-02-03T21:08:32;8.65;;;1.65;;
17997;SDS011;9124;48.144;17.098;2023-02-03T21:12:10;3.17;;;1.90;;
17997;SDS011;9124;48.144;17.098;2023-02-03T21:15:55;0.80;;;0.80;;
17997;SDS011;9124;48.144;17.098;2023-02-03T21:19:34;0.55;;;0.52;;
17997;SDS011;9124;48.144;17.098;2023-02-03T21:23:11;6.15;;;1.52;;
17997;SDS011;9124;48.144;17.098;2023-02-03T21:26:48;2.38;;;0.80;;
17997;SDS011;9124;48.144;17.098;2023-02-03T21:38:23;2.75;;;0.60;;
17997;SDS011;9124;48.144;17.098;2023-02-03T21:42:39;3.35;;;0.70;;
17997;SDS011;9124;48.144;17.098;2023-02-03T21:46:27;0.65;;;0.65;;
17997;SDS011;9124;48.144;17.098;2023-02-03T21:50:25;1.10;;;0.55;;
17997;SDS011;9124;48.144;17.098;2023-02-03T22:11:34;2.13;;;0.98;;
17997;SDS011;9124;48.144;17.098;2023-02-03T22:15:11;3.17;;;0.60;;
17997;SDS011;9124;48.144;17.098;2023-02-03T22:18:47;2.17;;;0.90;;
17997;SDS011;9124;48.144;17.098;2023-02-03T22:32:26;1.17;;;0.57;;
17997;SDS011;9124;48.144;17.098;2023-02-03T22:36:03;2.28;;;0.82;;
17997;SDS011;9124;48.144;17.098;2023-02-03T22:39:41;1.13;;;0.68;;
17997;SDS011;9124;48.144;17.098;2023-02-03T22:48:46;1.08;;;0.75;;
17997;SDS011;9124;48.144;17.098;2023-02-03T23:02:23;2.47;;;1.15;;
17997;SDS011;9124;48.144;17.098;2023-02-03T23:06:00;1.13;;;0.68;;
17997;SDS011;9124;48.144;17.098;2023-02-03T23:09:36;6.07;;;1.35;;
17997;SDS011;9124;48.144;17.098;2023-02-03T23:13:13;4.00;;;1.65;;
17997;SDS011;9124;48.144;17.098;2023-02-03T23:16:49;6.90;;;1.45;;
17997;SDS011;9124;48.144;17.098;2023-02-03T23:20:26;5.35;;;2.83;;
17997;SDS011;9124;48.144;17.098;2023-02-03T23:24:02;10.85;;;1.35;;
17997;SDS011;9124;48.144;17.098;2023-02-03T23:27:39;3.95;;;1.40;;
17997;SDS011;9124;48.144;17.098;2023-02-03T23:31:15;1.90;;;1.45;;
17997;SDS011;9124;48.144;17.098;2023-02-03T23:34:52;3.85;;;1.25;;
17997;SDS011;9124;48.144;17.098;2023-02-03T23:38:46;4.15;;;1.17;;
17997;SDS011;9124;48.144;17.098;2023-02-03T23:42:23;2.88;;;1.02;;
17997;SDS011;9124;48.144;17.098;2023-02-03T23:45:59;6.20;;;1.17;;
17997;SDS011;9124;48.144;17.098;2023-02-03T23:49:36;3.35;;;1.27;;
17997;SDS011;9124;48.144;17.098;2023-02-03T23:53:12;4.57;;;1.38;;
17997;SDS011;9124;48.144;17.098;2023-02-03T23:56:48;2.55;;;0.85;;
